Terminal Aerodrome Forecast
Issued by NWS

Current Version | Previous Version | Graphics & Text | Print | Product List | Glossary On
Versions: 1 2 3 4 5 6 7 8 9 10 11 12 13 14 15
495
FTUS41 KILN 251132
TAFLUK
TAF
KLUK 251132Z 2512/2612 00000KT P6SM FEW002
     FM251300 21003KT P6SM FEW250=

USA.gov is the U.S. government's official web portal to all federal, state and local government web resources and services.